Time;durP1;ratioP1;P1;durP2;ratioP2;P2;SDS_P1;SDS_P2;PMS_P1;PMS_P2;Temp;Humidity;BMP_temperature;BMP_pressure;BME280_temperature;BME280_humidity;BME280_pressure;Samples;Min_cycle;Max_cycle;Signal;HPM_P1;HPM_P2
2023/01/24 00:01:07;;;;;;;1999.90;999.90;;;4.00;99.90;;;;;;5055163;28;20198;-72
2023/01/24 00:03:32;;;;;;;1999.90;999.90;;;3.90;99.90;;;;;;5055127;28;20272;-72
2023/01/24 00:05:58;;;;;;;1999.90;999.90;;;3.90;99.90;;;;;;5040482;28;20187;-72
2023/01/24 00:08:23;;;;;;;1999.90;999.90;;;5.30;99.90;;;;;;5035225;28;20562;-72
2023/01/24 00:11:01;;;;;;;1999.90;999.90;;;3.90;99.90;;;;;;5034967;28;20168;-72
2023/01/24 00:13:27;;;;;;;1999.90;999.90;;;3.90;99.90;;;;;;5035046;28;20192;-72
2023/01/24 00:16:02;;;;;;;1999.90;999.90;;;4.00;99.90;;;;;;5034992;28;20979;-72
2023/01/24 00:18:28;;;;;;;1999.90;999.90;;;4.00;99.90;;;;;;5034956;28;20438;-72
2023/01/24 00:21:01;;;;;;;1999.90;999.90;;;4.00;99.90;;;;;;5034780;28;20455;-72
2023/01/24 00:23:26;;;;;;;1999.90;999.90;;;4.00;99.90;;;;;;5034850;28;20293;-72
2023/01/24 00:25:52;;;;;;;1999.90;999.90;;;4.00;99.90;;;;;;5034819;28;20988;-72
2023/01/24 00:28:18;;;;;;;1999.90;999.90;;;4.00;99.90;;;;;;5034829;28;20219;-72
2023/01/24 00:30:43;;;;;;;1999.90;999.90;;;4.10;99.90;;;;;;5034568;28;20199;-72
2023/01/24 00:33:09;;;;;;;1999.90;999.90;;;4.00;99.90;;;;;;5034561;28;20193;-72
2023/01/24 00:35:34;;;;;;;1999.90;999.90;;;4.00;99.90;;;;;;5034641;28;20172;-72
2023/01/24 00:38:00;;;;;;;1999.90;999.90;;;4.00;99.90;;;;;;5034600;28;20246;-72
2023/01/24 00:40:25;;;;;;;1999.90;999.90;;;4.00;99.90;;;;;;5034512;28;20678;-72
2023/01/24 00:42:51;;;;;;;1999.90;999.90;;;4.10;99.90;;;;;;5034409;28;20208;-72
2023/01/24 00:45:17;;;;;;;1999.90;999.90;;;4.10;99.90;;;;;;5034603;28;20179;-72
2023/01/24 00:47:42;;;;;;;1999.90;999.90;;;4.10;99.90;;;;;;5034404;28;20465;-72
2023/01/24 00:50:08;;;;;;;1999.90;999.90;;;4.10;99.90;;;;;;5034205;28;20183;-72
2023/01/24 00:52:34;;;;;;;1999.90;999.90;;;4.20;99.90;;;;;;5034344;28;20182;-72
2023/01/24 00:54:59;;;;;;;1999.90;999.90;;;4.10;99.90;;;;;;5034242;28;20529;-72
2023/01/24 00:57:25;;;;;;;1999.90;999.90;;;4.10;99.90;;;;;;5034219;28;20563;-72
2023/01/24 00:59:50;;;;;;;1999.90;999.90;;;4.20;99.90;;;;;;5033091;28;20323;-72
2023/01/24 01:02:16;;;;;;;1999.90;999.90;;;4.20;99.90;;;;;;5034110;28;20168;-72
2023/01/24 01:04:42;;;;;;;1999.90;999.90;;;4.20;99.90;;;;;;5034208;28;20192;-72
2023/01/24 01:07:07;;;;;;;1999.90;999.90;;;4.10;99.90;;;;;;5034026;28;20179;-72
2023/01/24 01:09:33;;;;;;;1999.90;999.90;;;4.80;99.90;;;;;;5033871;28;20172;-72
2023/01/24 01:11:58;;;;;;;1999.90;999.90;;;4.30;99.90;;;;;;5034049;28;20243;-72
2023/01/24 01:14:24;;;;;;;1999.90;999.90;;;4.10;99.90;;;;;;5033924;28;20203;-72
2023/01/24 01:16:49;;;;;;;1999.90;999.90;;;4.10;99.90;;;;;;5033860;28;20171;-72
2023/01/24 01:19:15;;;;;;;1999.90;999.90;;;4.10;99.90;;;;;;5033660;28;20657;-72
2023/01/24 01:21:44;;;;;;;1999.90;999.90;;;4.10;99.90;;;;;;5033769;28;20176;-72
2023/01/24 01:24:10;;;;;;;1999.90;999.90;;;4.10;99.90;;;;;;5033812;28;20639;-72
2023/01/24 01:26:35;;;;;;;1999.90;999.90;;;4.10;99.90;;;;;;5033588;28;20430;-72
2023/01/24 01:29:01;;;;;;;1999.90;999.90;;;;;;;;;;5033558;28;20399;-72
2023/01/24 01:31:27;;;;;;;1999.90;999.90;;;4.00;99.90;;;;;;5033642;28;20620;-72
2023/01/24 01:33:52;;;;;;;1999.90;999.90;;;4.10;99.90;;;;;;5033789;28;20431;-72
2023/01/24 01:36:18;;;;;;;1999.90;999.90;;;4.10;99.90;;;;;;5033459;28;20180;-72
2023/01/24 01:38:44;;;;;;;1999.90;999.90;;;4.10;99.90;;;;;;5033558;28;20180;-72
2023/01/24 01:41:12;;;;;;;1999.90;999.90;;;4.10;99.90;;;;;;5033876;28;20169;-72
2023/01/24 01:44:37;;;;;;;1999.90;999.90;;;4.00;99.90;;;;;;5033308;28;20204;-72
2023/01/24 01:46:28;;;;;;;1999.90;999.90;;;4.00;99.90;;;;;;5033973;28;20421;-72
2023/01/24 01:48:58;;;;;;;1999.90;999.90;;;4.00;99.90;;;;;;5034002;28;20411;-72
2023/01/24 01:51:41;;;;;;;1999.90;999.90;;;4.00;99.90;;;;;;5033468;28;20411;-72
2023/01/24 01:54:22;;;;;;;1999.90;999.90;;;4.00;99.90;;;;;;5033196;28;20999;-72
2023/01/24 01:56:51;;;;;;;1999.90;999.90;;;4.10;99.90;;;;;;5033396;28;20757;-72
2023/01/24 01:59:21;;;;;;;1999.90;999.90;;;4.30;99.90;;;;;;5032954;28;20399;-72
2023/01/24 02:01:49;;;;;;;1999.90;999.90;;;4.00;99.90;;;;;;5033439;28;20820;-72
2023/01/24 02:04:19;;;;;;;1999.90;999.90;;;4.00;99.90;;;;;;5032781;28;20505;-72
2023/01/24 02:06:50;;;;;;;1999.90;999.90;;;4.10;99.90;;;;;;5032839;28;20450;-72
2023/01/24 02:09:20;;;;;;;1999.90;999.90;;;4.00;99.90;;;;;;5032695;28;20408;-72
2023/01/24 02:11:46;;;;;;;1999.90;999.90;;;4.00;99.90;;;;;;5032729;28;20172;-72
2023/01/24 02:16:58;;;;;;;1999.90;999.90;;;4.00;99.90;;;;;;5032953;28;20425;-72
2023/01/24 02:19:30;;;;;;;1999.90;999.90;;;4.00;99.90;;;;;;5032569;28;20419;-72
2023/01/24 02:22:10;;;;;;;1999.90;999.90;;;4.00;99.90;;;;;;5032633;28;20211;-72
2023/01/24 02:24:44;;;;;;;1999.90;999.90;;;4.00;99.90;;;;;;5032609;28;20438;-72
2023/01/24 02:27:10;;;;;;;1999.90;999.90;;;4.00;99.90;;;;;;5032593;28;20460;-72
2023/01/24 02:29:36;;;;;;;1999.90;999.90;;;4.00;99.90;;;;;;5032381;28;20407;-72
2023/01/24 02:32:06;;;;;;;1999.90;999.90;;;4.00;99.90;;;;;;5032433;28;20164;-72
2023/01/24 02:34:31;;;;;;;1999.90;999.90;;;4.00;99.90;;;;;;5032617;28;20569;-71
2023/01/24 02:37:00;;;;;;;1999.90;999.90;;;4.00;99.90;;;;;;5032325;28;20403;-72
2023/01/24 02:39:35;;;;;;;1999.90;999.90;;;4.00;99.90;;;;;;5032199;28;20172;-72
2023/01/24 02:42:16;;;;;;;1999.90;999.90;;;4.00;99.90;;;;;;5032365;28;20593;-72
2023/01/24 02:44:42;;;;;;;1999.90;999.90;;;3.90;99.90;;;;;;5032250;28;20426;-72
2023/01/24 02:47:07;;;;;;;1999.90;999.90;;;3.90;99.90;;;;;;5032165;28;20412;-72
2023/01/24 02:49:33;;;;;;;1999.90;999.90;;;4.00;99.90;;;;;;5032209;28;20183;-72
2023/01/24 02:54:43;;;;;;;1999.90;999.90;;;;;;;;;;5032313;28;20405;-72
2023/01/24 02:59:53;;;;;;;1999.90;999.90;;;;;;;;;;5031967;28;20410;-72
2023/01/24 03:02:18;;;;;;;1999.90;999.90;;;3.90;99.90;;;;;;5031997;28;20415;-72
2023/01/24 03:04:44;;;;;;;1999.90;999.90;;;3.90;99.90;;;;;;5031959;28;20498;-72
2023/01/24 03:07:10;;;;;;;1999.90;999.90;;;3.90;99.90;;;;;;5031992;28;20164;-72
2023/01/24 03:09:38;;;;;;;1999.90;999.90;;;3.90;99.90;;;;;;5031796;28;20208;-72
2023/01/24 03:36:43;;;;;;;1999.90;999.90;;;4.00;99.90;;;;;;5035951;28;20410;-72
2023/01/24 03:41:55;;;;;;;1999.90;999.90;;;3.90;99.90;;;;;;5036069;28;20183;-72
2023/01/24 03:44:20;;;;;;;1999.90;999.90;;;3.90;99.90;;;;;;5035499;28;20462;-72
2023/01/24 03:46:47;;;;;;;1999.90;999.90;;;3.90;99.90;;;;;;5035605;28;20677;-73
2023/01/24 03:49:13;;;;;;;1999.90;999.90;;;3.80;99.90;;;;;;5036693;28;20168;-72
2023/01/24 03:54:23;;;;;;;1999.90;999.90;;;3.80;99.90;;;;;;5035480;28;20465;-72
2023/01/24 03:56:48;;;;;;;1999.90;999.90;;;3.80;99.90;;;;;;5035308;28;20403;-72
2023/01/24 03:59:14;;;;;;;1999.90;999.90;;;3.80;99.90;;;;;;5035245;28;20179;-72
2023/01/24 04:01:40;;;;;;;1999.90;999.90;;;3.80;99.90;;;;;;5035749;28;20590;-72
2023/01/24 04:04:05;;;;;;;1999.90;999.90;;;3.90;99.90;;;;;;5035152;28;20208;-72
2023/01/24 04:06:32;;;;;;;1999.90;999.90;;;3.90;99.90;;;;;;5035182;28;20177;-72
2023/01/24 04:08:57;;;;;;;1999.90;999.90;;;3.90;99.90;;;;;;5034989;28;20164;-72
2023/01/24 04:11:23;;;;;;;1999.90;999.90;;;3.80;99.90;;;;;;5035184;28;20415;-72
2023/01/24 04:13:48;;;;;;;1999.90;999.90;;;3.90;99.90;;;;;;5035516;28;20202;-72
2023/01/24 04:16:14;;;;;;;1999.90;999.90;;;3.80;99.90;;;;;;5034863;28;20180;-72
2023/01/24 04:18:40;;;;;;;1999.90;999.90;;;3.80;99.90;;;;;;5035005;28;20184;-72
2023/01/24 04:21:06;;;;;;;1999.90;999.90;;;3.70;99.90;;;;;;5034779;28;20227;-72
2023/01/24 04:23:31;;;;;;;1999.90;999.90;;;3.70;99.90;;;;;;5034771;28;20466;-72
2023/01/24 04:25:59;;;;;;;1999.90;999.90;;;3.70;99.90;;;;;;5034742;28;20264;-72
2023/01/24 04:28:26;;;;;;;1999.90;999.90;;;3.70;99.90;;;;;;5034882;28;20199;-72
2023/01/24 04:30:59;;;;;;;1999.90;999.90;;;3.70;99.90;;;;;;5034504;28;20411;-72
2023/01/24 04:33:25;;;;;;;1999.90;999.90;;;3.70;99.90;;;;;;5034631;28;20430;-72
2023/01/24 04:35:51;;;;;;;1999.90;999.90;;;3.80;99.90;;;;;;5034677;28;20454;-72
2023/01/24 04:38:17;;;;;;;1999.90;999.90;;;3.80;99.90;;;;;;5034677;28;20438;-72
2023/01/24 04:40:42;;;;;;;1999.90;999.90;;;3.70;99.90;;;;;;5034413;28;20180;-72
2023/01/24 04:43:08;;;;;;;1999.90;999.90;;;3.70;99.90;;;;;;5034465;28;20581;-72
2023/01/24 04:45:33;;;;;;;1999.90;999.90;;;3.70;99.90;;;;;;5034824;28;20172;-72
2023/01/24 04:47:59;;;;;;;1999.90;999.90;;;3.70;99.90;;;;;;5034417;28;20164;-72
2023/01/24 04:50:25;;;;;;;1999.90;999.90;;;3.70;99.90;;;;;;5034414;28;20728;-72
2023/01/24 04:52:50;;;;;;;1999.90;999.90;;;3.70;99.90;;;;;;5034322;28;20196;-72
2023/01/24 04:55:16;;;;;;;1999.90;999.90;;;3.60;99.90;;;;;;5034354;28;20198;-72
2023/01/24 04:57:42;;;;;;;1999.90;999.90;;;3.50;99.90;;;;;;5034169;28;20176;-71
2023/01/24 05:00:09;;;;;;;1999.90;999.90;;;3.60;99.90;;;;;;5034267;28;20613;-72
2023/01/24 05:02:37;;;;;;;1999.90;999.90;;;3.70;99.90;;;;;;5034007;28;20458;-72
2023/01/24 05:05:03;;;;;;;1999.90;999.90;;;3.60;99.90;;;;;;5034228;28;20438;-72
2023/01/24 05:07:29;;;;;;;1999.90;999.90;;;3.60;99.90;;;;;;5034014;28;20172;-72
2023/01/24 05:09:54;;;;;;;1999.90;999.90;;;3.60;99.90;;;;;;5033906;28;20411;-72
2023/01/24 05:12:20;;;;;;;1999.90;999.90;;;3.60;99.90;;;;;;5034051;28;20160;-72
2023/01/24 05:14:45;;;;;;;1999.90;999.90;;;3.60;99.90;;;;;;5033946;28;20185;-72
2023/01/24 05:17:11;;;;;;;1999.90;999.90;;;3.60;99.90;;;;;;5033870;28;20167;-72
2023/01/24 05:19:37;;;;;;;1999.90;999.90;;;3.60;99.90;;;;;;5033744;28;20658;-72
2023/01/24 05:22:02;;;;;;;1999.90;999.90;;;3.60;99.90;;;;;;5034019;28;20180;-72
2023/01/24 05:24:28;;;;;;;1999.90;999.90;;;3.60;99.90;;;;;;5033784;28;20204;-72
2023/01/24 05:26:54;;;;;;;1999.90;999.90;;;3.60;99.90;;;;;;5033571;28;20836;-72
2023/01/24 05:29:20;;;;;;;1999.90;999.90;;;3.70;99.90;;;;;;5033636;28;20219;-72
2023/01/24 05:31:45;;;;;;;1999.90;999.90;;;3.70;99.90;;;;;;5033782;28;20427;-72
2023/01/24 05:34:11;;;;;;;1999.90;999.90;;;3.60;99.90;;;;;;5033612;28;20199;-72
2023/01/24 05:36:37;;;;;;;1999.90;999.90;;;3.60;99.90;;;;;;5033585;28;20195;-72
2023/01/24 05:39:03;;;;;;;1999.90;999.90;;;3.60;99.90;;;;;;5033464;28;20184;-72
2023/01/24 05:41:29;;;;;;;1999.90;999.90;;;3.60;99.90;;;;;;5033507;28;20184;-72
2023/01/24 05:43:54;;;;;;;1999.90;999.90;;;3.60;99.90;;;;;;5033351;28;20454;-72
2023/01/24 05:46:21;;;;;;;1999.90;999.90;;;3.60;99.90;;;;;;5032788;28;20160;-72
2023/01/24 05:48:48;;;;;;;1999.90;999.90;;;3.60;99.90;;;;;;5034233;28;20252;-72
2023/01/24 05:51:16;;;;;;;1999.90;999.90;;;3.60;99.90;;;;;;5034243;28;20168;-72
2023/01/24 05:53:43;;;;;;;1999.90;999.90;;;3.50;99.90;;;;;;5033914;28;20546;-72
2023/01/24 05:56:19;;;;;;;1999.90;999.90;;;3.60;99.90;;;;;;5033075;28;20729;-72
2023/01/24 05:58:46;;;;;;;1999.90;999.90;;;3.50;99.90;;;;;;5033055;28;20176;-72
2023/01/24 06:01:19;;;;;;;1999.90;999.90;;;3.60;99.90;;;;;;5032745;28;20458;-72
2023/01/24 06:03:47;;;;;;;1999.90;999.90;;;3.60;99.90;;;;;;5032961;28;20959;-72
2023/01/24 06:06:15;;;;;;;1999.90;999.90;;;3.60;99.90;;;;;;5032923;28;20415;-72
2023/01/24 06:08:40;;;;;;;1999.90;999.90;;;3.60;99.90;;;;;;5032909;28;20420;-72
2023/01/24 06:11:18;;;;;;;1999.90;999.90;;;3.60;99.90;;;;;;5032931;28;20411;-72
2023/01/24 06:13:43;;;;;;;1999.90;999.90;;;3.60;99.90;;;;;;5032779;28;20242;-72
2023/01/24 06:16:17;;;;;;;1999.90;999.90;;;3.50;99.90;;;;;;5032812;28;20172;-72
2023/01/24 06:18:44;;;;;;;1999.90;999.90;;;3.50;99.90;;;;;;5032908;28;20187;-72
2023/01/24 06:21:28;;;;;;;1999.90;999.90;;;3.60;99.90;;;;;;5032739;28;20202;-72
2023/01/24 06:23:54;;;;;;;1999.90;999.90;;;3.60;99.90;;;;;;5032659;28;20458;-72
2023/01/24 06:26:20;;;;;;;1999.90;999.90;;;3.60;99.90;;;;;;5032470;28;20403;-72
2023/01/24 06:28:46;;;;;;;1999.90;999.90;;;3.60;99.90;;;;;;5032605;28;20431;-72
2023/01/24 06:31:41;;;;;;;1999.90;999.90;;;3.60;99.90;;;;;;5032400;28;20410;-72
2023/01/24 06:34:27;;;;;;;1999.90;999.90;;;3.60;99.90;;;;;;5011069;28;20443;-72
2023/01/24 06:37:31;;;;;;;1999.90;999.90;;;3.50;99.90;;;;;;5032528;28;20476;-72
2023/01/24 06:39:57;;;;;;;1999.90;999.90;;;3.40;99.90;;;;;;4977570;28;20180;-72
2023/01/24 06:42:23;;;;;;;1999.90;999.90;;;3.00;99.90;;;;;;5032179;28;20437;-72
2023/01/24 06:44:49;;;;;;;1999.90;999.90;;;3.30;99.90;;;;;;5032262;28;20164;-72
2023/01/24 06:47:15;;;;;;;1999.90;999.90;;;3.30;99.90;;;;;;5032265;28;20794;-72
2023/01/24 06:49:41;;;;;;;1999.90;999.90;;;3.30;99.90;;;;;;5032269;28;20705;-72
2023/01/24 06:52:07;;;;;;;1999.90;999.90;;;3.30;99.90;;;;;;5032286;28;20192;-72
2023/01/24 06:54:34;;;;;;;1999.90;999.90;;;3.30;99.90;;;;;;5031950;28;20261;-72
2023/01/24 06:57:00;;;;;;;1999.90;999.90;;;3.30;99.90;;;;;;5031182;28;20184;-72
2023/01/24 06:59:26;;;;;;;1999.90;999.90;;;3.30;99.90;;;;;;5032000;28;20175;-72
2023/01/24 07:01:52;;;;;;;1999.90;999.90;;;3.40;99.90;;;;;;5032247;28;20787;-72
2023/01/24 07:04:17;;;;;;;1999.90;999.90;;;3.40;99.90;;;;;;5032120;28;20322;-72
2023/01/24 07:06:43;;;;;;;1999.90;999.90;;;3.30;99.90;;;;;;5031981;28;20179;-71
2023/01/24 07:09:09;;;;;;;1999.90;999.90;;;3.30;99.90;;;;;;5031841;28;20218;-72
2023/01/24 07:11:35;;;;;;;1999.90;999.90;;;3.30;99.90;;;;;;5032051;28;20963;-72
2023/01/24 07:14:01;;;;;;;1999.90;999.90;;;3.20;99.90;;;;;;5031936;28;20219;-72
2023/01/24 07:16:26;;;;;;;1999.90;999.90;;;3.20;99.90;;;;;;5031903;28;20789;-72
2023/01/24 07:18:52;;;;;;;1999.90;999.90;;;3.30;99.90;;;;;;5031862;28;20562;-72
2023/01/24 07:21:18;;;;;;;1999.90;999.90;;;3.30;99.90;;;;;;5031944;28;20651;-72
2023/01/24 07:23:45;;;;;;;1999.90;999.90;;;3.30;99.90;;;;;;5031624;28;20489;-72
2023/01/24 07:26:11;;;;;;;1999.90;999.90;;;3.30;99.90;;;;;;5031752;28;20820;-71
2023/01/24 07:28:38;;;;;;;1999.90;999.90;;;3.30;99.90;;;;;;5031810;28;20169;-71
2023/01/24 07:31:04;;;;;;;1999.90;999.90;;;3.40;99.90;;;;;;5031663;28;20172;-70
2023/01/24 07:33:29;;;;;;;1999.90;999.90;;;3.40;99.90;;;;;;5031709;28;20199;-71
2023/01/24 07:35:55;;;;;;;1999.90;999.90;;;3.30;99.90;;;;;;5031719;28;20411;-71
2023/01/24 07:38:21;;;;;;;1999.90;999.90;;;3.30;99.90;;;;;;5031656;28;20647;-71
2023/01/24 07:40:46;;;;;;;1999.90;999.90;;;3.30;99.90;;;;;;5031484;28;20584;-71
2023/01/24 07:43:12;;;;;;;1999.90;999.90;;;3.30;99.90;;;;;;5031557;28;20303;-71
2023/01/24 07:45:38;;;;;;;1999.90;999.90;;;3.40;99.90;;;;;;5031518;28;20210;-71
2023/01/24 07:48:07;;;;;;;1999.90;999.90;;;3.40;99.90;;;;;;5031625;28;20406;-71
2023/01/24 07:50:34;;;;;;;1999.90;999.90;;;3.40;99.90;;;;;;5031593;28;20176;-71
2023/01/24 07:52:59;;;;;;;1999.90;999.90;;;3.50;99.90;;;;;;5031350;28;20207;-71
2023/01/24 07:55:25;;;;;;;1999.90;999.90;;;3.50;99.90;;;;;;5031474;28;20817;-71
2023/01/24 07:57:51;;;;;;;1999.90;999.90;;;3.60;99.90;;;;;;5031499;28;20187;-71
2023/01/24 08:00:18;;;;;;;1999.90;999.90;;;3.50;99.90;;;;;;5031266;28;20779;-70
2023/01/24 08:02:44;;;;;;;1999.90;999.90;;;3.50;99.90;;;;;;5031289;28;20458;-71
2023/01/24 08:05:10;;;;;;;1999.90;999.90;;;3.50;99.90;;;;;;5031459;28;20465;-71
2023/01/24 08:07:37;;;;;;;1999.90;999.90;;;3.50;99.90;;;;;;5031328;28;20557;-70
2023/01/24 08:10:03;;;;;;;1999.90;999.90;;;3.50;99.90;;;;;;5034829;28;20920;-71
2023/01/24 08:12:29;;;;;;;1999.90;999.90;;;3.30;99.90;;;;;;5035035;28;20168;-70
2023/01/24 08:14:54;;;;;;;1999.90;999.90;;;3.50;99.90;;;;;;5035121;28;20410;-70
2023/01/24 08:17:20;;;;;;;1999.90;999.90;;;3.50;99.90;;;;;;5034978;28;20163;-70
2023/01/24 08:19:45;;;;;;;1999.90;999.90;;;3.50;99.90;;;;;;5034826;28;20652;-71
2023/01/24 08:22:11;;;;;;;1999.90;999.90;;;3.50;99.90;;;;;;5035059;28;20244;-71
2023/01/24 08:24:36;;;;;;;1999.90;999.90;;;3.60;99.90;;;;;;5034751;28;20215;-71
2023/01/24 08:27:03;;;;;;;1999.90;999.90;;;3.60;99.90;;;;;;5034794;28;20172;-71
2023/01/24 08:29:29;;;;;;;1999.90;999.90;;;3.60;99.90;;;;;;5034696;28;20539;-70
2023/01/24 08:31:55;;;;;;;1999.90;999.90;;;3.60;99.90;;;;;;5034757;28;20176;-71
2023/01/24 08:34:20;;;;;;;1999.90;999.90;;;3.70;99.90;;;;;;5034639;28;20446;-71
2023/01/24 08:36:46;;;;;;;1999.90;999.90;;;3.70;99.90;;;;;;5034576;28;20172;-71
2023/01/24 08:39:12;;;;;;;1999.90;999.90;;;3.70;99.90;;;;;;5034623;28;20939;-71
2023/01/24 08:41:38;;;;;;;1999.90;999.90;;;3.70;99.90;;;;;;5034595;28;20256;-71
2023/01/24 08:44:04;;;;;;;1999.90;999.90;;;3.70;99.90;;;;;;5034515;28;20344;-71
2023/01/24 08:46:31;;;;;;;1999.90;999.90;;;3.70;99.90;;;;;;5034449;28;20399;-71
2023/01/24 08:48:57;;;;;;;1999.90;999.90;;;3.70;99.90;;;;;;5034264;28;20943;-71
2023/01/24 08:51:24;;;;;;;1999.90;999.90;;;3.70;99.90;;;;;;5034379;28;20399;-71
2023/01/24 08:53:49;;;;;;;1999.90;999.90;;;3.80;99.90;;;;;;5034320;28;20820;-71
2023/01/24 08:56:15;;;;;;;1999.90;999.90;;;3.80;99.90;;;;;;5034263;28;20168;-71
2023/01/24 08:58:41;;;;;;;1999.90;999.90;;;3.90;99.90;;;;;;5034386;28;20191;-71
2023/01/24 09:01:08;;;;;;;1999.90;999.90;;;3.90;99.90;;;;;;5034198;28;20552;-71
2023/01/24 09:03:33;;;;;;;1999.90;999.90;;;3.90;99.90;;;;;;5034058;28;20271;-71
2023/01/24 09:05:59;;;;;;;1999.90;999.90;;;3.90;99.90;;;;;;5034441;28;20431;-70
2023/01/24 09:08:25;;;;;;;1999.90;999.90;;;3.90;99.90;;;;;;5034073;28;20160;-70
2023/01/24 09:10:51;;;;;;;1999.90;999.90;;;3.90;99.90;;;;;;5033907;28;20188;-71
2023/01/24 09:13:17;;;;;;;1999.90;999.90;;;3.90;99.90;;;;;;5033972;28;21031;-71
2023/01/24 09:15:42;;;;;;;1999.90;999.90;;;3.90;99.90;;;;;;5033956;28;20271;-70
2023/01/24 09:18:08;;;;;;;1999.90;999.90;;;3.90;99.90;;;;;;5033867;28;20164;-71
2023/01/24 09:20:34;;;;;;;1999.90;999.90;;;4.00;99.90;;;;;;5032866;28;20537;-71
2023/01/24 09:23:00;;;;;;;1999.90;999.90;;;4.00;99.90;;;;;;5033686;28;20855;-71
2023/01/24 09:25:25;;;;;;;1999.90;999.90;;;4.10;99.90;;;;;;5033727;28;20176;-71
2023/01/24 09:27:55;;;;;;;1999.90;999.90;;;4.10;99.90;;;;;;5033741;28;20168;-71
2023/01/24 09:30:22;;;;;;;1999.90;999.90;;;4.10;99.90;;;;;;5033616;28;20171;-71
2023/01/24 09:32:48;;;;;;;1999.90;999.90;;;4.10;99.90;;;;;;5033560;28;20433;-71
2023/01/24 09:35:14;;;;;;;1999.90;999.90;;;4.20;99.90;;;;;;5033581;28;20457;-71
2023/01/24 09:37:41;;;;;;;1999.90;999.90;;;4.20;99.90;;;;;;5032015;28;20411;-69
2023/01/24 09:40:39;;;;;;;1999.90;999.90;;;4.20;99.90;;;;;;5017189;28;20485;-68
2023/01/24 09:43:35;;;;;;;1999.90;999.90;;;4.20;99.90;;;;;;5027171;28;20497;-70
2023/01/24 09:46:25;;;;;;;1999.90;999.90;;;4.30;99.90;;;;;;5035161;28;20423;-70
2023/01/24 09:48:58;;;;;;;1999.90;999.90;;;4.40;99.90;;;;;;5033673;28;20417;-71
2023/01/24 09:51:29;;;;;;;1999.90;999.90;;;4.40;99.90;;;;;;5053456;28;20970;-70
2023/01/24 09:53:58;;;;;;;1999.90;999.90;;;4.40;99.90;;;;;;5051071;28;20963;-70
2023/01/24 09:56:37;;;;;;;1999.90;999.90;;;4.50;99.90;;;;;;5039921;28;20442;-70
2023/01/24 09:59:35;;;;;;;1999.90;999.90;;;4.40;99.90;;;;;;5054067;28;20410;-70
2023/01/24 10:02:02;;;;;;;1999.90;999.90;;;4.50;99.90;;;;;;5054475;28;20490;-69
2023/01/24 10:04:35;;;;;;;1999.90;999.90;;;4.50;99.90;;;;;;5052788;28;20481;-69
2023/01/24 10:07:31;;;;;;;1999.90;999.90;;;4.50;99.90;;;;;;5062277;28;20441;-69
2023/01/24 10:10:06;;;;;;;1999.90;999.90;;;4.60;99.90;;;;;;5053411;28;20390;-69
2023/01/24 10:12:43;;;;;;;1999.90;999.90;;;4.50;99.90;;;;;;5053095;28;20779;-70
2023/01/24 10:15:16;;;;;;;1999.90;999.90;;;4.50;99.90;;;;;;5048834;28;20396;-71
2023/01/24 10:17:41;;;;;;;1999.90;999.90;;;4.60;99.90;;;;;;5030575;28;20172;-71
2023/01/24 10:20:15;;;;;;;1999.90;999.90;;;4.70;99.90;;;;;;5031074;28;20399;-72
2023/01/24 10:23:02;;;;;;;1999.90;999.90;;;4.50;99.90;;;;;;5045490;28;20619;-71
2023/01/24 10:25:47;;;;;;;1999.90;999.90;;;4.60;99.90;;;;;;5041009;28;21045;-71
2023/01/24 10:28:22;;;;;;;1999.90;999.90;;;4.70;99.90;;;;;;5037104;28;20418;-71
2023/01/24 10:31:16;;;;;;;1999.90;999.90;;;4.70;99.90;;;;;;5050861;28;20398;-71
2023/01/24 10:33:47;;;;;;;1999.90;999.90;;;4.70;99.90;;;;;;5050949;28;20434;-71
2023/01/24 10:36:18;;;;;;;1999.90;999.90;;;4.70;99.90;;;;;;5047500;28;20386;-71
2023/01/24 10:38:43;;;;;;;1999.90;999.90;;;4.80;99.90;;;;;;5050392;28;20888;-71
2023/01/24 10:41:22;;;;;;;1999.90;999.90;;;4.80;99.90;;;;;;5050051;28;20409;-71
2023/01/24 10:44:29;;;;;;;1999.90;999.90;;;4.80;99.90;;;;;;5049994;28;20187;-71
2023/01/24 10:47:02;;;;;;;1999.90;999.90;;;4.80;99.90;;;;;;5049998;28;20935;-71
2023/01/24 10:49:40;;;;;;;1999.90;999.90;;;4.90;99.90;;;;;;5049909;28;20386;-71
2023/01/24 10:52:17;;;;;;;1999.90;999.90;;;4.90;99.90;;;;;;5050295;28;20420;-71
2023/01/24 10:54:56;;;;;;;1999.90;999.90;;;4.90;99.90;;;;;;5050316;28;20449;-71
2023/01/24 10:57:34;;;;;;;1999.90;999.90;;;4.90;99.90;;;;;;5050116;28;20410;-71
2023/01/24 11:00:30;;;;;;;1999.90;999.90;;;4.90;99.90;;;;;;5038923;28;20419;-71
2023/01/24 11:03:19;;;;;;;1999.90;999.90;;;4.90;99.90;;;;;;5030081;28;20451;-71
2023/01/24 11:05:54;;;;;;;1999.90;999.90;;;4.90;99.90;;;;;;5030570;28;20418;-70
2023/01/24 11:08:25;;;;;;;1999.90;999.90;;;4.90;99.90;;;;;;5032734;28;20418;-69
2023/01/24 11:10:57;;;;;;;1999.90;999.90;;;4.90;99.90;;;;;;5035351;28;20905;-69
2023/01/24 11:13:23;;;;;;;1999.90;999.90;;;;;;;;;;5017858;28;20462;-69
2023/01/24 11:15:55;;;;;;;1999.90;999.90;;;4.90;99.90;;;;;;5033151;28;20430;-69
2023/01/24 11:18:27;;;;;;;1999.90;999.90;;;5.00;99.90;;;;;;5032947;28;20421;-69
2023/01/24 11:21:14;;;;;;;1999.90;999.90;;;5.00;99.90;;;;;;5031700;28;20384;-71
2023/01/24 11:23:41;;;;;;;1999.90;999.90;;;5.00;99.90;;;;;;5030016;28;20482;-71
2023/01/24 11:26:25;;;;;;;1999.90;999.90;;;5.00;99.90;;;;;;5030183;28;20412;-71
2023/01/24 11:29:03;;;;;;;1999.90;999.90;;;5.00;99.90;;;;;;5029533;28;20388;-72
2023/01/24 11:32:16;;;;;;;1999.90;999.90;;;5.00;99.90;;;;;;5030275;28;20414;-72
2023/01/24 11:35:11;;;;;;;1999.90;999.90;;;5.10;99.90;;;;;;4930285;29;20989;-71
2023/01/24 11:37:40;;;;;;;1999.90;999.90;;;5.10;99.90;;;;;;5029854;28;20764;-71
2023/01/24 11:40:08;;;;;;;1999.90;999.90;;;5.10;99.90;;;;;;5029645;28;20444;-72
2023/01/24 11:42:52;;;;;;;1999.90;999.90;;;5.00;99.90;;;;;;5029346;28;20896;-72
2023/01/24 11:45:42;;;;;;;1999.90;999.90;;;5.10;99.90;;;;;;5034123;28;20406;-72
2023/01/24 11:48:21;;;;;;;1999.90;999.90;;;5.10;99.90;;;;;;5033599;28;20823;-72
2023/01/24 11:51:05;;;;;;;1999.90;999.90;;;5.10;99.90;;;;;;5033301;28;20407;-72
2023/01/24 11:53:31;;;;;;;1999.90;999.90;;;5.10;99.90;;;;;;5033754;28;20446;-72
2023/01/24 11:56:11;;;;;;;1999.90;999.90;;;5.10;99.90;;;;;;5033777;28;20807;-72
2023/01/24 11:59:07;;;;;;;1999.90;999.90;;;5.10;99.90;;;;;;5033649;28;20533;-71
2023/01/24 12:02:06;;;;;;;1999.90;999.90;;;5.10;99.90;;;;;;5033627;28;20445;-72
2023/01/24 12:04:46;;;;;;;1999.90;999.90;;;5.00;99.90;;;;;;5039382;28;20457;-72
2023/01/24 12:07:52;;;;;;;1999.90;999.90;;;5.00;99.90;;;;;;5043635;28;20394;-69
2023/01/24 12:10:44;;;;;;;1999.90;999.90;;;5.00;99.90;;;;;;5035239;28;20392;-72
2023/01/24 12:13:40;;;;;;;1999.90;999.90;;;4.90;99.90;;;;;;5034271;28;20513;-73
2023/01/24 12:16:14;;;;;;;1999.90;999.90;;;4.80;99.90;;;;;;5035387;28;20407;-73
2023/01/24 12:19:30;;;;;;;1999.90;999.90;;;4.90;99.90;;;;;;5035097;28;20402;-73
2023/01/24 12:21:57;;;;;;;1999.90;999.90;;;4.90;99.90;;;;;;4936195;29;20423;-71
2023/01/24 12:24:34;;;;;;;1999.90;999.90;;;5.00;99.90;;;;;;5025198;28;20464;-71
2023/01/24 12:27:08;;;;;;;1999.90;999.90;;;5.00;99.90;;;;;;5034397;28;20501;-71
2023/01/24 12:29:40;;;;;;;1999.90;999.90;;;4.90;99.90;;;;;;5034344;28;20815;-71
2023/01/24 12:32:31;;;;;;;1999.90;999.90;;;4.90;99.90;;;;;;5034409;28;20422;-71
2023/01/24 12:35:06;;;;;;;1999.90;999.90;;;4.90;99.90;;;;;;5033809;28;20411;-69
2023/01/24 12:37:35;;;;;;;1999.90;999.90;;;5.00;99.90;;;;;;5034727;28;20414;-69
2023/01/24 12:40:15;;;;;;;1999.90;999.90;;;5.00;99.90;;;;;;5033795;28;20411;-68
2023/01/24 12:42:47;;;;;;;1999.90;999.90;;;4.90;99.90;;;;;;5033755;28;20955;-68
2023/01/24 12:45:33;;;;;;;1999.90;999.90;;;5.10;99.90;;;;;;5034395;28;20824;-68
2023/01/24 12:48:19;;;;;;;1999.90;999.90;;;5.10;99.90;;;;;;5033857;28;20415;-68
2023/01/24 12:51:04;;;;;;;1999.90;999.90;;;5.10;99.90;;;;;;5034048;28;20399;-68
2023/01/24 12:54:18;;;;;;;1999.90;999.90;;;5.10;99.90;;;;;;5033816;28;20451;-69
2023/01/24 12:56:56;;;;;;;1999.90;999.90;;;4.90;99.90;;;;;;5028769;28;20430;-68
2023/01/24 12:59:27;;;;;;;1999.90;999.90;;;4.90;99.90;;;;;;5034083;28;20454;-71
2023/01/24 13:01:58;;;;;;;1999.90;999.90;;;4.90;99.90;;;;;;5034344;28;20601;-70
2023/01/24 13:04:45;;;;;;;1999.90;999.90;;;4.90;99.90;;;;;;5034243;28;20459;-70